sensor_id;sensor_type;location;lat;lon;timestamp;pressure;altitude;pressure_sealevel;temperature;humidity
70127;BME280;57491;42.694;23.314;2022-09-09T00:02:27;95314.34;;;20.53;58.42
70127;BME280;57491;42.694;23.314;2022-09-09T00:05:00;95307.78;;;20.55;58.08
70127;BME280;57491;42.694;23.314;2022-09-09T00:07:38;95317.31;;;20.56;58.27
70127;BME280;57491;42.694;23.314;2022-09-09T00:10:16;95314.09;;;20.54;58.11
70127;BME280;57491;42.694;23.314;2022-09-09T00:12:48;95313.53;;;20.52;58.00
70127;BME280;57491;42.694;23.314;2022-09-09T00:15:23;95278.81;;;20.20;58.38
70127;BME280;57491;42.694;23.314;2022-09-09T00:17:57;95316.34;;;20.34;58.58
70127;BME280;57491;42.694;23.314;2022-09-09T00:20:30;95297.41;;;20.25;58.31
70127;BME280;57491;42.694;23.314;2022-09-09T00:23:06;95283.41;;;20.13;58.36
70127;BME280;57491;42.694;23.314;2022-09-09T00:25:44;95294.97;;;20.24;58.11
70127;BME280;57491;42.694;23.314;2022-09-09T00:28:18;95285.34;;;20.18;58.35
70127;BME280;57491;42.694;23.314;2022-09-09T00:30:46;95245.56;;;19.96;58.09
70127;BME280;57491;42.694;23.314;2022-09-09T00:33:16;95278.00;;;20.20;58.16
70127;BME280;57491;42.694;23.314;2022-09-09T00:35:48;95290.19;;;20.21;58.54
70127;BME280;57491;42.694;23.314;2022-09-09T00:38:19;95263.91;;;20.14;58.53
70127;BME280;57491;42.694;23.314;2022-09-09T00:40:52;95258.28;;;20.11;58.30
70127;BME280;57491;42.694;23.314;2022-09-09T00:43:26;95271.81;;;20.26;57.75
70127;BME280;57491;42.694;23.314;2022-09-09T00:46:14;95260.44;;;20.14;58.19
70127;BME280;57491;42.694;23.314;2022-09-09T00:48:52;95276.19;;;20.09;58.19
70127;BME280;57491;42.694;23.314;2022-09-09T00:51:29;95275.03;;;20.04;58.12
70127;BME280;57491;42.694;23.314;2022-09-09T00:54:03;95272.06;;;20.13;58.22
70127;BME280;57491;42.694;23.314;2022-09-09T00:56:37;95271.59;;;20.04;58.59
70127;BME280;57491;42.694;23.314;2022-09-09T00:59:18;95275.84;;;20.05;59.15
70127;BME280;57491;42.694;23.314;2022-09-09T01:01:48;95269.44;;;20.13;58.79
70127;BME280;57491;42.694;23.314;2022-09-09T01:04:20;95266.88;;;20.18;58.72
70127;BME280;57491;42.694;23.314;2022-09-09T01:06:57;95274.34;;;20.21;58.71
70127;BME280;57491;42.694;23.314;2022-09-09T01:09:32;95277.53;;;20.23;58.58
70127;BME280;57491;42.694;23.314;2022-09-09T01:12:11;95276.41;;;20.19;58.48
70127;BME280;57491;42.694;23.314;2022-09-09T01:14:42;95283.50;;;20.18;58.34
70127;BME280;57491;42.694;23.314;2022-09-09T01:17:15;95281.94;;;20.17;59.24
70127;BME280;57491;42.694;23.314;2022-09-09T01:19:52;95285.97;;;20.08;59.69
70127;BME280;57491;42.694;23.314;2022-09-09T01:22:32;95285.84;;;20.03;60.08
70127;BME280;57491;42.694;23.314;2022-09-09T01:25:18;95275.19;;;19.98;60.55
70127;BME280;57491;42.694;23.314;2022-09-09T01:27:49;95274.28;;;19.92;60.73
70127;BME280;57491;42.694;23.314;2022-09-09T01:30:18;95269.22;;;19.91;60.90
70127;BME280;57491;42.694;23.314;2022-09-09T01:32:49;95255.25;;;19.79;61.45
70127;BME280;57491;42.694;23.314;2022-09-09T01:35:28;95251.00;;;19.66;61.63
70127;BME280;57491;42.694;23.314;2022-09-09T01:37:56;95286.69;;;19.80;61.60
70127;BME280;57491;42.694;23.314;2022-09-09T01:40:24;95293.78;;;19.80;61.76
70127;BME280;57491;42.694;23.314;2022-09-09T01:42:54;95294.94;;;19.84;61.85
70127;BME280;57491;42.694;23.314;2022-09-09T01:45:22;95286.91;;;19.79;61.63
70127;BME280;57491;42.694;23.314;2022-09-09T01:47:50;95294.94;;;19.84;61.88
70127;BME280;57491;42.694;23.314;2022-09-09T01:50:19;95293.09;;;19.84;61.77
70127;BME280;57491;42.694;23.314;2022-09-09T01:52:51;95294.59;;;19.80;61.89
70127;BME280;57491;42.694;23.314;2022-09-09T01:55:28;95287.03;;;19.72;61.83
70127;BME280;57491;42.694;23.314;2022-09-09T01:58:09;95293.09;;;19.73;62.09
70127;BME280;57491;42.694;23.314;2022-09-09T02:00:44;95298.25;;;19.79;61.84
70127;BME280;57491;42.694;23.314;2022-09-09T02:03:20;95294.25;;;19.77;61.22
70127;BME280;57491;42.694;23.314;2022-09-09T02:05:57;95293.44;;;19.76;60.28
70127;BME280;57491;42.694;23.314;2022-09-09T02:08:35;95277.50;;;19.59;59.98
70127;BME280;57491;42.694;23.314;2022-09-09T02:11:10;95297.34;;;19.74;59.82
70127;BME280;57491;42.694;23.314;2022-09-09T02:13:40;95256.53;;;19.53;59.85
70127;BME280;57491;42.694;23.314;2022-09-09T02:16:14;95269.47;;;19.66;59.69
70127;BME280;57491;42.694;23.314;2022-09-09T02:18:46;95269.47;;;19.54;59.55
70127;BME280;57491;42.694;23.314;2022-09-09T02:21:15;95271.66;;;19.57;59.85
70127;BME280;57491;42.694;23.314;2022-09-09T02:23:45;95275.66;;;19.60;59.96
70127;BME280;57491;42.694;23.314;2022-09-09T02:26:14;95276.13;;;19.57;60.13
70127;BME280;57491;42.694;23.314;2022-09-09T02:28:50;95282.09;;;19.64;59.84
70127;BME280;57491;42.694;23.314;2022-09-09T02:31:20;95293.09;;;19.61;60.43
70127;BME280;57491;42.694;23.314;2022-09-09T02:33:52;95290.69;;;19.59;60.88
70127;BME280;57491;42.694;23.314;2022-09-09T02:36:23;95289.31;;;19.57;61.20
70127;BME280;57491;42.694;23.314;2022-09-09T02:38:51;95288.19;;;19.53;61.33
70127;BME280;57491;42.694;23.314;2022-09-09T02:41:20;95297.09;;;19.52;61.73
70127;BME280;57491;42.694;23.314;2022-09-09T02:43:51;95287.22;;;19.36;61.97
70127;BME280;57491;42.694;23.314;2022-09-09T02:46:27;95302.78;;;19.37;62.07
70127;BME280;57491;42.694;23.314;2022-09-09T02:49:00;95293.25;;;19.25;62.80
70127;BME280;57491;42.694;23.314;2022-09-09T02:51:35;95300.84;;;19.21;62.85
70127;BME280;57491;42.694;23.314;2022-09-09T02:54:13;95292.00;;;19.15;62.79
70127;BME280;57491;42.694;23.314;2022-09-09T02:56:48;95288.06;;;19.06;62.95
70127;BME280;57491;42.694;23.314;2022-09-09T02:59:18;95298.81;;;19.05;63.21
70127;BME280;57491;42.694;23.314;2022-09-09T03:01:45;95296.31;;;18.98;63.34
70127;BME280;57491;42.694;23.314;2022-09-09T03:04:12;95301.13;;;19.01;62.76
70127;BME280;57491;42.694;23.314;2022-09-09T03:06:41;95304.00;;;19.00;62.80
70127;BME280;57491;42.694;23.314;2022-09-09T03:09:08;95274.13;;;18.76;63.15
70127;BME280;57491;42.694;23.314;2022-09-09T03:11:36;95299.75;;;18.99;63.05
70127;BME280;57491;42.694;23.314;2022-09-09T03:14:03;95304.00;;;19.00;62.46
70127;BME280;57491;42.694;23.314;2022-09-09T03:16:32;95305.69;;;18.94;62.84
70127;BME280;57491;42.694;23.314;2022-09-09T03:19:00;95303.06;;;18.94;63.15
70127;BME280;57491;42.694;23.314;2022-09-09T03:21:27;95297.78;;;18.94;62.44
70127;BME280;57491;42.694;23.314;2022-09-09T03:23:54;95289.28;;;18.92;62.67
70127;BME280;57491;42.694;23.314;2022-09-09T03:26:21;95288.88;;;18.95;62.20
70127;BME280;57491;42.694;23.314;2022-09-09T03:28:48;95299.28;;;18.90;62.54
70127;BME280;57491;42.694;23.314;2022-09-09T03:31:17;95303.72;;;18.90;62.61
70127;BME280;57491;42.694;23.314;2022-09-09T03:33:46;95303.94;;;18.88;62.68
70127;BME280;57491;42.694;23.314;2022-09-09T03:36:14;95300.06;;;18.91;62.68
70127;BME280;57491;42.694;23.314;2022-09-09T03:38:41;95286.41;;;18.82;62.39
70127;BME280;57491;42.694;23.314;2022-09-09T03:41:08;95295.81;;;18.90;62.45
70127;BME280;57491;42.694;23.314;2022-09-09T03:43:35;95298.47;;;18.90;62.19
70127;BME280;57491;42.694;23.314;2022-09-09T03:46:03;95302.47;;;18.92;62.06
70127;BME280;57491;42.694;23.314;2022-09-09T03:48:30;95306.50;;;18.95;62.37
70127;BME280;57491;42.694;23.314;2022-09-09T03:50:59;95302.81;;;18.96;62.31
70127;BME280;57491;42.694;23.314;2022-09-09T03:53:27;95306.38;;;19.01;61.96
70127;BME280;57491;42.694;23.314;2022-09-09T03:55:56;95299.50;;;19.00;61.98
70127;BME280;57491;42.694;23.314;2022-09-09T03:58:26;95299.06;;;19.03;62.42
70127;BME280;57491;42.694;23.314;2022-09-09T04:00:54;95311.13;;;19.11;61.97
70127;BME280;57491;42.694;23.314;2022-09-09T04:03:22;95312.13;;;19.10;62.09
70127;BME280;57491;42.694;23.314;2022-09-09T04:05:50;95313.97;;;19.09;62.22
70127;BME280;57491;42.694;23.314;2022-09-09T04:08:19;95302.28;;;19.05;62.07
70127;BME280;57491;42.694;23.314;2022-09-09T04:10:47;95309.88;;;19.13;61.81
70127;BME280;57491;42.694;23.314;2022-09-09T04:13:16;95304.94;;;19.17;61.43
70127;BME280;57491;42.694;23.314;2022-09-09T04:15:44;95309.53;;;19.22;61.47
70127;BME280;57491;42.694;23.314;2022-09-09T04:18:11;95299.13;;;19.27;61.10
70127;BME280;57491;42.694;23.314;2022-09-09T04:20:38;95300.38;;;19.24;60.98
70127;BME280;57491;42.694;23.314;2022-09-09T04:23:05;95306.78;;;19.28;61.21
70127;BME280;57491;42.694;23.314;2022-09-09T04:25:34;95292.25;;;19.26;60.69
70127;BME280;57491;42.694;23.314;2022-09-09T04:28:02;95303.38;;;19.39;60.38
70127;BME280;57491;42.694;23.314;2022-09-09T04:30:29;95314.09;;;19.44;60.50
70127;BME280;57491;42.694;23.314;2022-09-09T04:32:56;95305.00;;;19.40;60.58
70127;BME280;57491;42.694;23.314;2022-09-09T04:35:23;95307.31;;;19.48;60.17
70127;BME280;57491;42.694;23.314;2022-09-09T04:37:50;95299.63;;;19.47;60.40
70127;BME280;57491;42.694;23.314;2022-09-09T04:40:18;95311.78;;;19.59;59.98
70127;BME280;57491;42.694;23.314;2022-09-09T04:42:46;95300.91;;;19.56;59.59
70127;BME280;57491;42.694;23.314;2022-09-09T04:45:14;95309.50;;;19.63;59.86
70127;BME280;57491;42.694;23.314;2022-09-09T04:47:41;95309.63;;;19.56;60.06
70127;BME280;57491;42.694;23.314;2022-09-09T04:50:08;95304.91;;;19.47;60.54
70127;BME280;57491;42.694;23.314;2022-09-09T04:52:35;95306.03;;;19.51;60.34
70127;BME280;57491;42.694;23.314;2022-09-09T04:55:03;95301.34;;;19.65;60.41
70127;BME280;57491;42.694;23.314;2022-09-09T04:57:30;95294.94;;;19.72;60.47
70127;BME280;57491;42.694;23.314;2022-09-09T05:00:00;95298.25;;;19.79;60.32
70127;BME280;57491;42.694;23.314;2022-09-09T05:02:27;95291.38;;;19.78;59.33
70127;BME280;57491;42.694;23.314;2022-09-09T05:04:56;95288.25;;;19.81;59.61
70127;BME280;57491;42.694;23.314;2022-09-09T05:07:23;95292.06;;;19.97;59.29
70127;BME280;57491;42.694;23.314;2022-09-09T05:09:51;95272.78;;;19.96;58.92
70127;BME280;57491;42.694;23.314;2022-09-09T05:12:19;95268.41;;;20.02;58.71
70127;BME280;57491;42.694;23.314;2022-09-09T05:14:46;95290.97;;;20.21;57.66
70127;BME280;57491;42.694;23.314;2022-09-09T05:17:15;95295.88;;;20.41;56.88
70127;BME280;57491;42.694;23.314;2022-09-09T05:19:42;95299.97;;;20.60;56.22
70127;BME280;57491;42.694;23.314;2022-09-09T05:22:09;95295.31;;;20.67;55.99
70127;BME280;57491;42.694;23.314;2022-09-09T05:24:37;95284.56;;;20.85;55.95
70127;BME280;57491;42.694;23.314;2022-09-09T05:27:04;95287.72;;;20.99;55.50
70127;BME280;57491;42.694;23.314;2022-09-09T05:29:31;95282.97;;;21.13;54.93
70127;BME280;57491;42.694;23.314;2022-09-09T05:31:59;95286.34;;;21.25;54.29
70127;BME280;57491;42.694;23.314;2022-09-09T05:34:28;95289.72;;;21.37;53.86
70127;BME280;57491;42.694;23.314;2022-09-09T05:36:55;95290.00;;;21.57;53.40
70127;BME280;57491;42.694;23.314;2022-09-09T05:39:22;95287.69;;;21.77;52.46
70127;BME280;57491;42.694;23.314;2022-09-09T05:41:49;95286.28;;;21.92;52.21
70127;BME280;57491;42.694;23.314;2022-09-09T05:44:16;95292.53;;;22.02;51.51
70127;BME280;57491;42.694;23.314;2022-09-09T05:46:44;95291.44;;;22.20;51.19
70127;BME280;57491;42.694;23.314;2022-09-09T05:49:12;95296.94;;;22.35;50.88
70127;BME280;57491;42.694;23.314;2022-09-09T05:51:42;95296.84;;;22.47;50.26
70127;BME280;57491;42.694;23.314;2022-09-09T05:54:10;95287.19;;;22.62;50.08
70127;BME280;57491;42.694;23.314;2022-09-09T05:56:39;95296.41;;;22.77;49.66
70127;BME280;57491;42.694;23.314;2022-09-09T05:59:06;95296.75;;;22.85;49.42
70127;BME280;57491;42.694;23.314;2022-09-09T06:01:35;95287.06;;;22.96;49.52
70127;BME280;57491;42.694;23.314;2022-09-09T06:04:06;95301.00;;;23.13;49.25
70127;BME280;57491;42.694;23.314;2022-09-09T06:06:35;95315.88;;;23.14;48.97
70127;BME280;57491;42.694;23.314;2022-09-09T06:09:06;95313.69;;;23.11;48.83
70127;BME280;57491;42.694;23.314;2022-09-09T06:11:36;95312.88;;;23.05;48.13
70127;BME280;57491;42.694;23.314;2022-09-09T06:14:04;95292.34;;;22.96;48.69
70127;BME280;57491;42.694;23.314;2022-09-09T06:16:32;95304.13;;;23.05;48.68
70127;BME280;57491;42.694;23.314;2022-09-09T06:18:59;95304.59;;;23.02;48.13
70127;BME280;57491;42.694;23.314;2022-09-09T06:21:27;95309.44;;;23.10;48.16
70127;BME280;57491;42.694;23.314;2022-09-09T06:23:56;95307.50;;;23.27;48.38
70127;BME280;57491;42.694;23.314;2022-09-09T06:26:26;95303.91;;;23.43;47.47
70127;BME280;57491;42.694;23.314;2022-09-09T06:28:54;95307.63;;;23.42;47.02
70127;BME280;57491;42.694;23.314;2022-09-09T06:31:25;95302.66;;;23.51;47.15
70127;BME280;57491;42.694;23.314;2022-09-09T06:33:56;95308.94;;;23.72;46.53
70127;BME280;57491;42.694;23.314;2022-09-09T06:36:26;95295.50;;;23.88;45.51
70127;BME280;57491;42.694;23.314;2022-09-09T06:38:53;95291.63;;;24.06;45.08
70127;BME280;57491;42.694;23.314;2022-09-09T06:41:23;95294.72;;;24.30;44.65
70127;BME280;57491;42.694;23.314;2022-09-09T06:43:53;95284.44;;;24.49;43.82
70127;BME280;57491;42.694;23.314;2022-09-09T06:46:22;95287.72;;;24.76;42.93
70127;BME280;57491;42.694;23.314;2022-09-09T06:48:53;95283.47;;;24.80;42.26
70127;BME280;57491;42.694;23.314;2022-09-09T06:51:25;95300.78;;;24.87;41.94
70127;BME280;57491;42.694;23.314;2022-09-09T06:53:55;95296.28;;;24.93;41.44
70127;BME280;57491;42.694;23.314;2022-09-09T06:56:23;95308.81;;;25.18;41.00
70127;BME280;57491;42.694;23.314;2022-09-09T06:58:54;95316.03;;;25.32;40.16
70127;BME280;57491;42.694;23.314;2022-09-09T07:01:23;95313.13;;;25.34;40.09
70127;BME280;57491;42.694;23.314;2022-09-09T07:03:52;95310.72;;;25.32;40.38
70127;BME280;57491;42.694;23.314;2022-09-09T07:06:21;95310.19;;;25.25;40.49
70127;BME280;57491;42.694;23.314;2022-09-09T07:08:50;95306.97;;;25.18;39.95
70127;BME280;57491;42.694;23.314;2022-09-09T07:11:19;95304.31;;;25.28;40.56
70127;BME280;57491;42.694;23.314;2022-09-09T07:13:47;95286.22;;;25.30;39.77
70127;BME280;57491;42.694;23.314;2022-09-09T07:16:17;95302.19;;;25.51;39.49
70127;BME280;57491;42.694;23.314;2022-09-09T07:18:46;95305.41;;;25.63;39.89
70127;BME280;57491;42.694;23.314;2022-09-09T07:21:17;95301.41;;;25.81;40.03
70127;BME280;57491;42.694;23.314;2022-09-09T07:23:44;95297.91;;;26.05;39.00
70127;BME280;57491;42.694;23.314;2022-09-09T07:26:13;95300.03;;;26.24;38.17
70127;BME280;57491;42.694;23.314;2022-09-09T07:28:41;95297.81;;;26.46;37.78
70127;BME280;57491;42.694;23.314;2022-09-09T07:31:13;95300.44;;;26.61;37.87
70127;BME280;57491;42.694;23.314;2022-09-09T07:33:44;95296.06;;;26.75;38.32
70127;BME280;57491;42.694;23.314;2022-09-09T07:36:15;95277.31;;;27.00;37.73
70127;BME280;57491;42.694;23.314;2022-09-09T07:38:44;95283.25;;;27.26;36.49
70127;BME280;57491;42.694;23.314;2022-09-09T07:41:14;95284.03;;;27.32;36.18
70127;BME280;57491;42.694;23.314;2022-09-09T07:43:46;95296.44;;;27.13;36.82
70127;BME280;57491;42.694;23.314;2022-09-09T07:46:14;95279.75;;;27.31;36.17
70127;BME280;57491;42.694;23.314;2022-09-09T07:48:45;95302.16;;;27.74;35.94
70127;BME280;57491;42.694;23.314;2022-09-09T07:51:15;95298.75;;;27.92;35.86
70127;BME280;57491;42.694;23.314;2022-09-09T07:53:44;95285.41;;;28.21;34.85
70127;BME280;57491;42.694;23.314;2022-09-09T07:56:12;95296.63;;;28.65;34.03
70127;BME280;57491;42.694;23.314;2022-09-09T07:58:42;95293.66;;;29.09;33.21
70127;BME280;57491;42.694;23.314;2022-09-09T08:01:10;95297.31;;;29.37;32.81
70127;BME280;57491;42.694;23.314;2022-09-09T08:03:38;95291.88;;;29.42;32.40
70127;BME280;57491;42.694;23.314;2022-09-09T08:06:08;95292.00;;;29.51;32.05
70127;BME280;57491;42.694;23.314;2022-09-09T08:08:35;95297.25;;;29.75;31.60
70127;BME280;57491;42.694;23.314;2022-09-09T08:11:06;95287.28;;;29.61;32.04
70127;BME280;57491;42.694;23.314;2022-09-09T08:13:35;95288.31;;;29.79;31.92
70127;BME280;57491;42.694;23.314;2022-09-09T08:16:07;95291.56;;;29.95;31.42
70127;BME280;57491;42.694;23.314;2022-09-09T08:18:35;95291.88;;;30.07;31.93
70127;BME280;57491;42.694;23.314;2022-09-09T08:21:11;95285.44;;;30.08;31.55
70127;BME280;57491;42.694;23.314;2022-09-09T08:23:40;95290.59;;;29.86;31.76
70127;BME280;57491;42.694;23.314;2022-09-09T08:26:10;95285.44;;;29.76;31.95
70127;BME280;57491;42.694;23.314;2022-09-09T08:28:38;95287.22;;;29.99;32.12
70127;BME280;57491;42.694;23.314;2022-09-09T08:31:08;95282.13;;;29.97;31.15
70127;BME280;57491;42.694;23.314;2022-09-09T08:33:36;95277.50;;;30.03;31.52
70127;BME280;57491;42.694;23.314;2022-09-09T08:36:04;95283.81;;;29.93;31.10
70127;BME280;57491;42.694;23.314;2022-09-09T08:38:33;95286.00;;;29.91;31.52
70127;BME280;57491;42.694;23.314;2022-09-09T08:41:11;95283.75;;;29.80;32.23
70127;BME280;57491;42.694;23.314;2022-09-09T08:43:41;95281.72;;;29.90;32.46
70127;BME280;57491;42.694;23.314;2022-09-09T08:46:13;95266.47;;;29.86;31.72
70127;BME280;57491;42.694;23.314;2022-09-09T08:48:53;95273.03;;;30.12;31.96
70127;BME280;57491;42.694;23.314;2022-09-09T08:51:24;95268.00;;;30.51;31.30
70127;BME280;57491;42.694;23.314;2022-09-09T08:53:55;95275.47;;;31.04;30.69
70127;BME280;57491;42.694;23.314;2022-09-09T08:56:25;95268.25;;;31.49;29.58
70127;BME280;57491;42.694;23.314;2022-09-09T08:58:54;95265.75;;;31.97;29.31
70127;BME280;57491;42.694;23.314;2022-09-09T09:01:44;95271.00;;;32.42;28.51
70127;BME280;57491;42.694;23.314;2022-09-09T09:04:29;95260.75;;;32.61;28.38
70127;BME280;57491;42.694;23.314;2022-09-09T09:07:08;95273.06;;;32.45;28.00
70127;BME280;57491;42.694;23.314;2022-09-09T09:09:48;95275.59;;;32.41;28.65
70127;BME280;57491;42.694;23.314;2022-09-09T09:12:21;95266.81;;;32.66;28.12
70127;BME280;57491;42.694;23.314;2022-09-09T09:14:49;95265.94;;;33.14;27.80
70127;BME280;57491;42.694;23.314;2022-09-09T09:17:18;95267.06;;;33.56;26.84
70127;BME280;57491;42.694;23.314;2022-09-09T09:19:47;95263.09;;;33.53;26.71
70127;BME280;57491;42.694;23.314;2022-09-09T09:22:18;95268.00;;;32.91;27.33
70127;BME280;57491;42.694;23.314;2022-09-09T09:24:53;95256.06;;;32.75;27.76
70127;BME280;57491;42.694;23.314;2022-09-09T09:27:28;95257.63;;;32.19;28.57
70127;BME280;57491;42.694;23.314;2022-09-09T09:29:59;95262.59;;;31.73;29.13
70127;BME280;57491;42.694;23.314;2022-09-09T09:32:31;95270.13;;;31.26;29.41
70127;BME280;57491;42.694;23.314;2022-09-09T09:35:02;95251.84;;;30.79;30.34
70127;BME280;57491;42.694;23.314;2022-09-09T09:37:36;95269.72;;;30.97;30.53
70127;BME280;57491;42.694;23.314;2022-09-09T09:40:12;95257.69;;;31.30;30.34
70127;BME280;57491;42.694;23.314;2022-09-09T09:42:48;95255.56;;;31.63;29.85
70127;BME280;57491;42.694;23.314;2022-09-09T09:45:28;95253.22;;;31.93;29.43
70127;BME280;57491;42.694;23.314;2022-09-09T09:48:02;95244.53;;;31.96;28.84
70127;BME280;57491;42.694;23.314;2022-09-09T09:50:30;95243.59;;;32.00;29.09
70127;BME280;57491;42.694;23.314;2022-09-09T09:53:00;95241.47;;;31.88;29.58
70127;BME280;57491;42.694;23.314;2022-09-09T09:55:30;95233.56;;;31.61;29.58
70127;BME280;57491;42.694;23.314;2022-09-09T09:58:02;95232.38;;;31.54;29.89
70127;BME280;57491;42.694;23.314;2022-09-09T10:00:30;95234.47;;;31.57;29.99
70127;BME280;57491;42.694;23.314;2022-09-09T10:02:57;95230.94;;;31.48;30.38
70127;BME280;57491;42.694;23.314;2022-09-09T10:05:27;95233.25;;;31.18;30.32
70127;BME280;57491;42.694;23.314;2022-09-09T10:08:03;95238.88;;;30.94;31.49
70127;BME280;57491;42.694;23.314;2022-09-09T10:10:45;95247.94;;;30.85;31.48
70127;BME280;57491;42.694;23.314;2022-09-09T10:13:20;95254.66;;;30.60;31.78
70127;BME280;57491;42.694;23.314;2022-09-09T10:15:57;95238.38;;;30.29;31.98
70127;BME280;57491;42.694;23.314;2022-09-09T10:18:44;95256.81;;;29.90;32.92
70127;BME280;57491;42.694;23.314;2022-09-09T10:21:29;95253.28;;;29.76;33.26
70127;BME280;57491;42.694;23.314;2022-09-09T10:24:11;95253.63;;;29.55;33.38
70127;BME280;57491;42.694;23.314;2022-09-09T10:26:49;95242.56;;;29.43;33.91
70127;BME280;57491;42.694;23.314;2022-09-09T10:29:44;95249.91;;;29.38;34.35
70127;BME280;57491;42.694;23.314;2022-09-09T10:32:34;95249.97;;;29.33;34.24
70127;BME280;57491;42.694;23.314;2022-09-09T10:35:14;95238.63;;;29.22;35.13
70127;BME280;57491;42.694;23.314;2022-09-09T10:38:14;95249.03;;;29.05;35.15
70127;BME280;57491;42.694;23.314;2022-09-09T10:41:11;95242.25;;;28.94;34.93
70127;BME280;57491;42.694;23.314;2022-09-09T10:44:17;95260.84;;;29.04;34.83
70127;BME280;57491;42.694;23.314;2022-09-09T10:46:56;95263.22;;;29.05;35.29
70127;BME280;57491;42.694;23.314;2022-09-09T10:49:44;95232.69;;;28.88;35.12
70127;BME280;57491;42.694;23.314;2022-09-09T10:52:22;95265.81;;;29.10;35.48
70127;BME280;57491;42.694;23.314;2022-09-09T10:54:57;95240.22;;;28.86;35.68
70127;BME280;57491;42.694;23.314;2022-09-09T10:57:31;95257.44;;;28.79;35.95
70127;BME280;57491;42.694;23.314;2022-09-09T11:00:05;95255.97;;;28.68;36.48
70127;BME280;57491;42.694;23.314;2022-09-09T11:02:34;95255.00;;;28.59;36.54
70127;BME280;57491;42.694;23.314;2022-09-09T11:05:06;95251.00;;;28.57;36.90
70127;BME280;57491;42.694;23.314;2022-09-09T11:07:40;95236.47;;;28.44;36.89
70127;BME280;57491;42.694;23.314;2022-09-09T11:10:17;95254.31;;;28.49;37.06
70127;BME280;57491;42.694;23.314;2022-09-09T11:12:47;95249.31;;;28.42;37.28
70127;BME280;57491;42.694;23.314;2022-09-09T11:15:22;95245.94;;;28.36;37.54
70127;BME280;57491;42.694;23.314;2022-09-09T11:17:55;95253.91;;;28.60;36.99
70127;BME280;57491;42.694;23.314;2022-09-09T11:20:25;95238.19;;;28.77;36.76
70127;BME280;57491;42.694;23.314;2022-09-09T11:22:56;95237.53;;;29.04;36.82
70127;BME280;57491;42.694;23.314;2022-09-09T11:25:30;95235.28;;;29.11;36.29
70127;BME280;57491;42.694;23.314;2022-09-09T11:28:24;95233.75;;;29.24;36.31
70127;BME280;57491;42.694;23.314;2022-09-09T11:31:04;95228.91;;;29.26;36.58
70127;BME280;57491;42.694;23.314;2022-09-09T11:33:58;95219.72;;;29.32;36.83
70127;BME280;57491;42.694;23.314;2022-09-09T11:36:47;95210.59;;;29.33;36.99
70127;BME280;57491;42.694;23.314;2022-09-09T11:42:22;95194.19;;;29.53;36.85
70127;BME280;57491;42.694;23.314;2022-09-09T11:44:50;95184.06;;;29.64;36.52
70127;BME280;57491;42.694;23.314;2022-09-09T11:47:25;95192.03;;;29.69;36.52
70127;BME280;57491;42.694;23.314;2022-09-09T11:50:07;95176.94;;;29.73;37.20
70127;BME280;57491;42.694;23.314;2022-09-09T11:52:39;95167.81;;;29.74;36.35
70127;BME280;57491;42.694;23.314;2022-09-09T11:55:09;95150.13;;;29.87;35.97
70127;BME280;57491;42.694;23.314;2022-09-09T11:57:38;95171.50;;;30.19;35.46
70127;BME280;57491;42.694;23.314;2022-09-09T12:00:29;95169.72;;;30.78;35.02
70127;BME280;57491;42.694;23.314;2022-09-09T12:03:00;95174.94;;;31.63;33.09
70127;BME280;57491;42.694;23.314;2022-09-09T12:05:36;95161.38;;;32.73;31.18
70127;BME280;57491;42.694;23.314;2022-09-09T12:08:05;95167.59;;;33.80;29.67
70127;BME280;57491;42.694;23.314;2022-09-09T12:10:36;95160.34;;;34.60;28.46
70127;BME280;57491;42.694;23.314;2022-09-09T12:13:15;95151.38;;;35.10;27.68
70127;BME280;57491;42.694;23.314;2022-09-09T12:15:50;95140.06;;;34.96;27.28
70127;BME280;57491;42.694;23.314;2022-09-09T12:18:25;95086.53;;;34.35;28.00
70127;BME280;57491;42.694;23.314;2022-09-09T12:21:07;95138.63;;;34.57;28.17
70127;BME280;57491;42.694;23.314;2022-09-09T12:23:45;95143.31;;;34.68;28.16
70127;BME280;57491;42.694;23.314;2022-09-09T12:26:37;95122.41;;;34.98;27.34
70127;BME280;57491;42.694;23.314;2022-09-09T12:29:14;95136.19;;;36.07;26.84
70127;BME280;57491;42.694;23.314;2022-09-09T12:31:48;95126.63;;;36.22;25.82
70127;BME280;57491;42.694;23.314;2022-09-09T12:34:31;95129.22;;;36.06;25.68
70127;BME280;57491;42.694;23.314;2022-09-09T12:37:04;95130.34;;;35.93;26.55
70127;BME280;57491;42.694;23.314;2022-09-09T12:39:36;95122.47;;;35.43;27.26
70127;BME280;57491;42.694;23.314;2022-09-09T12:42:16;95122.63;;;34.72;27.88
70127;BME280;57491;42.694;23.314;2022-09-09T12:44:51;95119.81;;;34.10;28.76
70127;BME280;57491;42.694;23.314;2022-09-09T12:47:21;95129.09;;;33.54;29.62
70127;BME280;57491;42.694;23.314;2022-09-09T12:49:52;95120.47;;;32.97;30.44
70127;BME280;57491;42.694;23.314;2022-09-09T12:52:27;95117.13;;;32.57;31.45
70127;BME280;57491;42.694;23.314;2022-09-09T12:54:58;95109.44;;;32.07;32.01
70127;BME280;57491;42.694;23.314;2022-09-09T12:57:33;95117.41;;;32.12;32.64
70127;BME280;57491;42.694;23.314;2022-09-09T13:00:10;95113.22;;;32.06;32.60
70127;BME280;57491;42.694;23.314;2022-09-09T13:02:46;95113.94;;;32.20;32.73
70127;BME280;57491;42.694;23.314;2022-09-09T13:05:18;95107.94;;;32.23;32.49
70127;BME280;57491;42.694;23.314;2022-09-09T13:07:46;95107.28;;;32.18;32.34
70127;BME280;57491;42.694;23.314;2022-09-09T13:10:17;95088.72;;;31.99;32.87
70127;BME280;57491;42.694;23.314;2022-09-09T13:12:48;95087.56;;;31.83;32.64
70127;BME280;57491;42.694;23.314;2022-09-09T13:15:20;95084.03;;;31.65;33.16
70127;BME280;57491;42.694;23.314;2022-09-09T13:17:56;95089.84;;;31.28;34.45
70127;BME280;57491;42.694;23.314;2022-09-09T13:20:25;95099.03;;;31.05;35.06